EmailTwitter


Observations de surface / Québec / CYQB (71714)

Régions: Québec | Canada | États-Unis | Europe | France | UK | Ailleurs
Station
Affichage
Infos & localisation pour CYQB (71714) | Aide pour décoder les METARs

Observations prises le 2018-01-23 à 05H27 UTC à QUEBEC A, QB (CYQB)

Obstacle(s) à la visibilité: neige modérée et poudrerie élevée.

Température: -10.0 Celsius

Point de rosée: -12.0 Celsius

Humidité relative: 85%

Facteur vent: -20.

Facteur vent (rafales): -23.

Vents: Est-nord-est à 35 km/h ou 19 noeuds.

Rafale du vent: 59 km/h ou 32 noeuds.

Pression au niveau moyen de la mer: 102.30 kilopascals.

Calage altimétrique: 102.23 kilopascals ou 30.19 pouces de mercure.

Visibilité horizontale: 0.62 milles terrestres ou 1.00 kilomètres.

Observation METAR:

CYQB 230527Z 07019G32KT 5/8SM R06/2800FT/N SN BLSN VV009 M10/M12 A3019 RMK SN8

SLP230=